Time;durP1;ratioP1;P1;durP2;ratioP2;P2;SDS_P1;SDS_P2;PMS_P1;PMS_P2;Temp;Humidity;BMP_temperature;BMP_pressure;BME280_temperature;BME280_humidity;BME280_pressure;Samples;Min_cycle;Max_cycle;Signal;HPM_P1;HPM_P2
2021/10/30 00:00:16;;;;;;;30.65;18.70;;;9.20;86.40;;;;;;4948415;28;20034;-66
2021/10/30 00:02:42;;;;;;;29.30;18.33;;;9.20;86.70;;;;;;4952914;28;20127;-66
2021/10/30 00:05:10;;;;;;;33.20;20.13;;;9.30;86.80;;;;;;4958455;28;20034;-66
2021/10/30 00:07:37;;;;;;;31.33;19.23;;;9.30;86.80;;;;;;4959458;28;20034;-66
2021/10/30 00:10:04;;;;;;;32.58;18.65;;;9.30;86.20;;;;;;4959289;28;20660;-67
2021/10/30 00:12:31;;;;;;;32.17;18.88;;;9.30;85.90;;;;;;4951537;28;20111;-66
2021/10/30 00:14:56;;;;;;;32.20;18.20;;;9.30;85.70;;;;;;4945624;28;20035;-66
2021/10/30 00:17:22;;;;;;;32.25;19.02;;;9.20;86.00;;;;;;4945290;28;20042;-66
2021/10/30 00:19:48;;;;;;;30.23;17.92;;;9.20;86.50;;;;;;4950528;28;20089;-66
2021/10/30 00:22:14;;;;;;;34.67;19.45;;;9.20;86.40;;;;;;4956708;28;20034;-66
2021/10/30 00:24:39;;;;;;;33.03;19.10;;;9.20;86.50;;;;;;4974590;28;20050;-66
2021/10/30 00:27:06;;;;;;;31.58;19.30;;;9.20;86.70;;;;;;4958485;28;20038;-66
2021/10/30 00:29:32;;;;;;;34.38;19.52;;;9.20;87.20;;;;;;4952888;28;20102;-66
2021/10/30 00:31:58;;;;;;;33.00;19.08;;;9.20;86.40;;;;;;4947169;28;20168;-66
2021/10/30 00:34:24;;;;;;;33.03;19.48;;;9.20;86.40;;;;;;4946514;28;20044;-66
2021/10/30 00:36:52;;;;;;;34.95;19.65;;;9.20;86.60;;;;;;4947753;28;20035;-66
2021/10/30 00:39:18;;;;;;;29.73;17.73;;;9.20;86.80;;;;;;4952519;28;20056;-67
2021/10/30 00:41:52;;;;;;;32.47;19.30;;;9.30;86.60;;;;;;4948835;28;20031;-66
2021/10/30 00:44:20;;;;;;;31.85;18.95;;;9.30;86.40;;;;;;4943607;28;20039;-66
2021/10/30 00:46:49;;;;;;;34.53;20.33;;;9.40;86.50;;;;;;4949212;28;20046;-65
2021/10/30 00:49:17;;;;;;;31.00;18.70;;;9.40;85.90;;;;;;4953994;28;20023;-66
2021/10/30 00:51:44;;;;;;;38.30;20.65;;;9.40;85.70;;;;;;4959547;28;20043;-66
2021/10/30 00:54:12;;;;;;;29.60;18.30;;;9.40;85.90;;;;;;4958589;28;20039;-66
2021/10/30 00:56:42;;;;;;;30.65;18.52;;;9.40;86.10;;;;;;4953843;28;20511;-67
2021/10/30 00:59:11;;;;;;;30.27;19.52;;;9.40;85.90;;;;;;4948059;28;20575;-66
2021/10/30 01:01:39;;;;;;;34.15;20.92;;;9.30;85.20;;;;;;4943281;28;20460;-66
2021/10/30 01:04:05;;;;;;;33.15;19.08;;;9.30;84.90;;;;;;4946706;28;20685;-66
2021/10/30 01:06:32;;;;;;;31.73;19.27;;;9.30;84.90;;;;;;4952160;28;20403;-66
2021/10/30 01:08:58;;;;;;;36.80;21.15;;;9.40;85.10;;;;;;4955516;28;20039;-66
2021/10/30 01:11:24;;;;;;;33.15;19.80;;;9.40;84.70;;;;;;4943151;28;20035;-66
2021/10/30 01:13:51;;;;;;;34.75;21.27;;;9.40;84.90;;;;;;4947374;28;20396;-65
2021/10/30 01:16:19;;;;;;;34.72;20.40;;;9.40;84.60;;;;;;4951489;28;20057;-67
2021/10/30 01:18:45;;;;;;;39.42;21.02;;;9.30;84.50;;;;;;4948058;28;20102;-67
2021/10/30 01:21:11;;;;;;;32.53;19.67;;;9.30;84.60;;;;;;4971345;28;20840;-66
2021/10/30 01:23:40;;;;;;;36.22;20.75;;;9.30;84.40;;;;;;4954237;28;20066;-66
2021/10/30 01:26:06;;;;;;;35.80;19.73;;;9.30;84.60;;;;;;4951627;28;20030;-66
2021/10/30 01:28:35;;;;;;;36.55;20.88;;;9.30;84.80;;;;;;4944479;28;20067;-66
2021/10/30 01:31:01;;;;;;;33.22;20.90;;;9.30;84.90;;;;;;4966540;28;20043;-66
2021/10/30 01:33:27;;;;;;;34.13;20.77;;;9.30;84.30;;;;;;4950644;28;20027;-66
2021/10/30 01:35:52;;;;;;;34.90;19.70;;;9.30;84.00;;;;;;4948716;28;20547;-66
2021/10/30 01:38:18;;;;;;;36.20;20.67;;;9.30;84.20;;;;;;4943327;28;20126;-66
2021/10/30 01:40:47;;;;;;;38.72;21.27;;;9.30;83.90;;;;;;4968296;28;20038;-67
2021/10/30 01:43:14;;;;;;;35.47;20.25;;;9.30;84.00;;;;;;4954206;28;20113;-66
2021/10/30 01:45:42;;;;;;;34.15;19.50;;;9.40;83.40;;;;;;4974331;28;20190;-66
2021/10/30 01:48:08;;;;;;;34.45;20.98;;;9.40;83.30;;;;;;4956236;28;20031;-66
2021/10/30 01:50:34;;;;;;;36.60;21.00;;;9.40;83.10;;;;;;4953672;28;20027;-66
2021/10/30 01:53:03;;;;;;;30.27;18.25;;;9.40;83.20;;;;;;4956886;28;20043;-67
2021/10/30 01:55:32;;;;;;;32.65;20.73;;;9.40;83.20;;;;;;4959396;28;20193;-67
2021/10/30 01:57:58;;;;;;;30.73;19.88;;;9.40;82.90;;;;;;4959204;28;20768;-66
2021/10/30 02:00:25;;;;;;;33.58;20.73;;;9.40;83.20;;;;;;4956675;28;20098;-66
2021/10/30 02:02:51;;;;;;;31.77;19.83;;;9.40;83.00;;;;;;4952154;28;20118;-67
2021/10/30 02:05:17;;;;;;;33.00;19.50;;;9.40;83.20;;;;;;4945228;28;20043;-66
2021/10/30 02:07:44;;;;;;;35.55;20.67;;;9.40;83.80;;;;;;4950701;28;20065;-66
2021/10/30 02:10:11;;;;;;;33.35;19.98;;;9.40;83.30;;;;;;4958434;28;20500;-66
2021/10/30 02:12:37;;;;;;;32.05;18.70;;;9.40;83.70;;;;;;4971979;28;20039;-66
2021/10/30 02:15:05;;;;;;;34.75;19.77;;;9.30;83.90;;;;;;4959372;28;20157;-66
2021/10/30 02:17:31;;;;;;;31.08;18.63;;;9.30;83.40;;;;;;4947454;28;20102;-66
2021/10/30 02:19:57;;;;;;;32.20;19.77;;;9.30;83.30;;;;;;4967419;28;20035;-67
2021/10/30 02:22:24;;;;;;;34.00;19.88;;;9.40;83.80;;;;;;4954782;28;20039;-66
2021/10/30 02:24:50;;;;;;;30.85;19.70;;;9.30;83.50;;;;;;4943446;28;20047;-66
2021/10/30 02:27:17;;;;;;;33.22;20.50;;;9.30;84.00;;;;;;4948332;28;20105;-66
2021/10/30 02:29:43;;;;;;;34.45;20.85;;;9.30;84.60;;;;;;4955055;28;20031;-66
2021/10/30 02:32:09;;;;;;;34.05;19.58;;;9.30;84.20;;;;;;4958727;28;20053;-66
2021/10/30 02:34:35;;;;;;;32.20;19.75;;;9.30;84.40;;;;;;4954565;28;20042;-66
2021/10/30 02:37:02;;;;;;;31.13;20.17;;;9.20;84.40;;;;;;4948704;28;20039;-66
2021/10/30 02:39:27;;;;;;;32.58;20.85;;;9.20;84.60;;;;;;4954616;28;20699;-66
2021/10/30 02:41:53;;;;;;;31.33;19.77;;;9.20;84.70;;;;;;4959784;28;20050;-66
2021/10/30 02:44:20;;;;;;;32.90;19.77;;;9.20;84.70;;;;;;4955674;28;20041;-66
2021/10/30 02:46:46;;;;;;;30.75;18.95;;;9.30;84.10;;;;;;4952716;28;20031;-66
2021/10/30 02:49:11;;;;;;;33.88;20.45;;;9.20;84.60;;;;;;4945579;28;20027;-66
2021/10/30 02:51:37;;;;;;;30.83;18.90;;;9.20;84.70;;;;;;4941004;28;20110;-66
2021/10/30 02:54:03;;;;;;;32.40;20.63;;;9.20;84.30;;;;;;4960525;28;20039;-66
2021/10/30 02:56:29;;;;;;;33.58;19.80;;;9.20;84.20;;;;;;4950677;28;20712;-67
2021/10/30 02:58:55;;;;;;;29.52;18.70;;;9.20;84.40;;;;;;4955732;28;20047;-66
2021/10/30 03:01:21;;;;;;;31.20;20.15;;;9.10;84.70;;;;;;4959550;28;20035;-66
2021/10/30 03:03:47;;;;;;;30.73;20.23;;;9.10;84.90;;;;;;4955834;28;20126;-66
2021/10/30 03:06:15;;;;;;;32.35;18.33;;;9.10;85.00;;;;;;4948179;28;20059;-66
2021/10/30 03:08:41;;;;;;;37.28;20.13;;;9.10;85.00;;;;;;4958507;28;20110;-66
2021/10/30 03:11:06;;;;;;;35.47;19.60;;;9.00;85.10;;;;;;4944690;28;20075;-66
2021/10/30 03:13:32;;;;;;;32.78;19.73;;;9.10;85.10;;;;;;4950604;28;20751;-66
2021/10/30 03:15:59;;;;;;;33.28;19.90;;;9.10;84.90;;;;;;4946050;28;20027;-67
2021/10/30 03:18:25;;;;;;;33.50;19.58;;;9.10;84.70;;;;;;4944725;28;20042;-65
2021/10/30 03:20:50;;;;;;;34.88;20.00;;;9.00;84.70;;;;;;4966425;28;20039;-66
2021/10/30 03:23:16;;;;;;;33.75;20.45;;;9.00;85.40;;;;;;4952986;28;20027;-66
2021/10/30 03:25:42;;;;;;;30.77;19.27;;;9.00;84.90;;;;;;4947518;28;20074;-66
2021/10/30 03:28:08;;;;;;;40.20;20.33;;;9.00;85.30;;;;;;4940348;28;20042;-66
2021/10/30 03:30:34;;;;;;;32.42;19.30;;;9.00;85.70;;;;;;4946460;28;20065;-66
2021/10/30 03:33:01;;;;;;;33.20;19.75;;;9.00;85.60;;;;;;4965091;28;20027;-66
2021/10/30 03:35:26;;;;;;;34.17;20.23;;;9.00;85.40;;;;;;4944935;28;20407;-67
2021/10/30 03:37:52;;;;;;;36.10;20.63;;;9.00;85.40;;;;;;4942021;28;20031;-66
2021/10/30 03:40:18;;;;;;;34.42;20.35;;;9.00;85.20;;;;;;4945921;28;20039;-66
2021/10/30 03:42:43;;;;;;;36.90;20.65;;;9.00;84.90;;;;;;4951005;28;20488;-66
2021/10/30 03:45:10;;;;;;;36.15;20.98;;;9.00;85.10;;;;;;4943549;28;20126;-66
2021/10/30 03:47:36;;;;;;;36.25;21.52;;;9.00;85.60;;;;;;4956193;28;20053;-66
2021/10/30 03:50:02;;;;;;;32.30;18.90;;;9.00;85.20;;;;;;4954160;28;20055;-66
2021/10/30 03:52:28;;;;;;;31.55;19.95;;;9.10;84.90;;;;;;4957081;28;20053;-66
2021/10/30 03:54:54;;;;;;;32.78;19.85;;;9.10;84.60;;;;;;4957309;28;20031;-66
2021/10/30 03:57:21;;;;;;;35.20;20.50;;;9.10;84.90;;;;;;4960104;28;20050;-66
2021/10/30 03:59:47;;;;;;;33.05;19.42;;;9.10;85.20;;;;;;4948879;28;20061;-66
2021/10/30 04:02:13;;;;;;;33.50;18.80;;;9.10;84.80;;;;;;4958796;28;20039;-66
2021/10/30 04:04:39;;;;;;;37.08;20.15;;;9.10;84.90;;;;;;4961491;28;20531;-66
2021/10/30 04:07:05;;;;;;;31.17;19.63;;;9.10;84.80;;;;;;4956155;28;20026;-66
2021/10/30 04:09:32;;;;;;;36.42;20.77;;;9.00;84.90;;;;;;4954006;28;20328;-66
2021/10/30 04:11:58;;;;;;;30.88;19.58;;;9.00;85.00;;;;;;4957839;28;20054;-66
2021/10/30 04:14:24;;;;;;;36.95;21.20;;;9.00;85.20;;;;;;4960804;28;20505;-67
2021/10/30 04:16:50;;;;;;;40.95;20.58;;;9.00;85.20;;;;;;4951949;28;20031;-66
2021/10/30 04:19:16;;;;;;;38.97;22.33;;;9.00;85.00;;;;;;4948244;28;20690;-66
2021/10/30 04:21:43;;;;;;;33.47;20.95;;;9.00;85.10;;;;;;4956916;28;20036;-66
2021/10/30 04:24:09;;;;;;;37.20;20.67;;;9.00;85.00;;;;;;4943463;28;20372;-66
2021/10/30 04:26:35;;;;;;;34.08;19.67;;;9.00;85.20;;;;;;4955804;28;20090;-66
2021/10/30 04:29:02;;;;;;;36.28;19.25;;;9.00;84.80;;;;;;4947959;28;20028;-66
2021/10/30 04:31:29;;;;;;;30.80;19.65;;;9.00;84.50;;;;;;4949759;28;20117;-66
2021/10/30 04:34:02;;;;;;;32.00;19.58;;;9.00;84.70;;;;;;4952231;28;20046;-66
2021/10/30 04:36:29;;;;;;;33.58;20.08;;;9.00;84.40;;;;;;4948697;28;20079;-66
2021/10/30 04:38:57;;;;;;;32.80;19.58;;;9.00;84.30;;;;;;4956334;28;20042;-66
2021/10/30 04:41:23;;;;;;;31.38;19.38;;;9.00;84.80;;;;;;4942103;28;20063;-66
2021/10/30 04:43:49;;;;;;;37.85;19.92;;;9.00;84.90;;;;;;4947679;28;20047;-66
2021/10/30 04:46:18;;;;;;;31.42;18.92;;;9.00;84.80;;;;;;4950772;28;20447;-66
2021/10/30 04:48:44;;;;;;;30.58;18.23;;;9.00;84.70;;;;;;4956350;28;20051;-66
2021/10/30 04:51:11;;;;;;;30.92;18.35;;;9.00;85.10;;;;;;4959525;28;20183;-66
2021/10/30 04:53:39;;;;;;;29.98;17.65;;;8.90;85.40;;;;;;4951842;28;20106;-66
2021/10/30 04:56:06;;;;;;;30.95;18.00;;;8.90;85.40;;;;;;4962353;28;20420;-66
2021/10/30 04:58:33;;;;;;;33.40;18.27;;;8.90;85.40;;;;;;4945678;28;20043;-66
2021/10/30 05:01:00;;;;;;;30.10;18.85;;;8.90;85.30;;;;;;4965204;28;20034;-66
2021/10/30 05:03:26;;;;;;;34.55;19.42;;;8.80;85.50;;;;;;4953127;28;20030;-66
2021/10/30 05:05:52;;;;;;;31.70;19.20;;;8.80;85.60;;;;;;4950548;28;20039;-66
2021/10/30 05:08:18;;;;;;;35.17;18.05;;;8.80;85.70;;;;;;4968772;28;20069;-66
2021/10/30 05:10:44;;;;;;;32.03;19.60;;;8.70;85.70;;;;;;4945923;28;20510;-66
2021/10/30 05:13:10;;;;;;;32.47;19.45;;;8.70;85.80;;;;;;4951943;28;20066;-66
2021/10/30 05:15:35;;;;;;;32.95;19.50;;;8.70;86.50;;;;;;4951849;28;20065;-66
2021/10/30 05:18:01;;;;;;;34.80;19.70;;;8.60;86.40;;;;;;4946296;28;20402;-66
2021/10/30 05:20:28;;;;;;;32.25;17.48;;;8.60;86.20;;;;;;4949974;28;20049;-66
2021/10/30 05:22:54;;;;;;;31.90;18.70;;;8.50;86.10;;;;;;4959982;28;20043;-66
2021/10/30 05:25:20;;;;;;;27.92;17.13;;;8.50;86.20;;;;;;4960477;28;20050;-66
2021/10/30 05:27:46;;;;;;;32.30;19.65;;;8.50;86.40;;;;;;4957540;28;20772;-66
2021/10/30 05:30:12;;;;;;;36.33;19.33;;;8.50;86.70;;;;;;4975359;28;20038;-65
2021/10/30 05:32:37;;;;;;;33.13;18.52;;;8.40;86.70;;;;;;4958597;28;20041;-68
2021/10/30 05:35:21;;;;;;;31.73;17.90;;;8.40;86.90;;;;;;4962544;28;20153;-66
2021/10/30 05:38:06;;;;;;;32.22;17.58;;;8.30;86.80;;;;;;4953644;28;20734;-66
2021/10/30 05:40:34;;;;;;;29.60;17.88;;;8.30;87.00;;;;;;4956775;28;20038;-66
2021/10/30 05:43:00;;;;;;;31.60;18.83;;;8.20;87.10;;;;;;4955706;28;20083;-66
2021/10/30 05:45:25;;;;;;;32.20;19.52;;;8.20;87.30;;;;;;4948490;28;20147;-66
2021/10/30 05:47:51;;;;;;;33.05;18.13;;;8.20;87.60;;;;;;4952534;28;20028;-66
2021/10/30 05:50:17;;;;;;;31.85;19.00;;;8.10;87.60;;;;;;4961652;28;20046;-66
2021/10/30 05:52:42;;;;;;;31.00;18.45;;;8.10;87.80;;;;;;4958101;28;20031;-66
2021/10/30 05:55:09;;;;;;;29.42;18.42;;;8.10;88.10;;;;;;4958770;28;20027;-66
2021/10/30 05:57:34;;;;;;;33.95;19.13;;;8.00;88.30;;;;;;4960062;28;20131;-66
2021/10/30 06:00:00;;;;;;;31.80;18.20;;;8.00;88.60;;;;;;4959803;28;20047;-66
2021/10/30 06:02:26;;;;;;;33.05;19.63;;;8.00;89.00;;;;;;4972340;28;20045;-67
2021/10/30 06:04:54;;;;;;;35.13;19.88;;;7.90;89.00;;;;;;4966143;28;20031;-67
2021/10/30 06:07:20;;;;;;;34.08;19.90;;;7.90;88.90;;;;;;4954687;28;20038;-66
2021/10/30 06:09:45;;;;;;;32.40;18.13;;;7.90;88.80;;;;;;4958808;28;20039;-66
2021/10/30 06:12:11;;;;;;;31.73;18.33;;;7.90;88.80;;;;;;4955775;28;20146;-66
2021/10/30 06:14:37;;;;;;;30.98;19.23;;;7.90;89.20;;;;;;4959777;28;20132;-66
2021/10/30 06:17:03;;;;;;;34.22;19.17;;;7.90;89.20;;;;;;4958897;28;20050;-66
2021/10/30 06:19:29;;;;;;;34.72;20.67;;;7.80;89.30;;;;;;4973031;28;20039;-66
2021/10/30 06:21:55;;;;;;;35.53;20.63;;;7.90;89.40;;;;;;4955530;28;20039;-66
2021/10/30 06:24:21;;;;;;;45.75;24.92;;;7.90;89.60;;;;;;4953401;28;20038;-66
2021/10/30 06:26:47;;;;;;;56.65;30.48;;;7.80;89.50;;;;;;4958485;28;20531;-66
2021/10/30 06:29:13;;;;;;;50.17;28.58;;;7.80;89.30;;;;;;4956623;28;20035;-66
2021/10/30 06:31:39;;;;;;;66.85;34.10;;;7.80;89.40;;;;;;4953011;28;20034;-66
2021/10/30 06:34:04;;;;;;;63.10;31.05;;;7.90;89.10;;;;;;4959702;28;20136;-66
2021/10/30 06:36:31;;;;;;;47.88;27.05;;;7.90;89.10;;;;;;4972479;28;20122;-65
2021/10/30 06:38:57;;;;;;;43.15;22.65;;;7.90;88.80;;;;;;4974109;28;20054;-64
2021/10/30 06:41:22;;;;;;;41.20;23.00;;;8.00;88.80;;;;;;4955217;28;20873;-64
2021/10/30 06:43:48;;;;;;;46.58;24.00;;;8.00;88.80;;;;;;4972089;28;20041;-63
2021/10/30 06:46:14;;;;;;;41.38;23.15;;;8.10;88.80;;;;;;4958073;28;20035;-64
2021/10/30 06:48:40;;;;;;;43.55;23.67;;;8.10;88.70;;;;;;4945889;28;20043;-65
2021/10/30 06:51:06;;;;;;;50.15;27.08;;;8.20;88.80;;;;;;4953394;28;20042;-64
2021/10/30 06:53:32;;;;;;;51.50;27.10;;;8.20;88.60;;;;;;4957739;28;20050;-64
2021/10/30 06:55:59;;;;;;;55.30;27.63;;;8.30;88.50;;;;;;4954701;28;20038;-64
2021/10/30 06:58:29;;;;;;;53.05;26.20;;;8.40;88.40;;;;;;4972301;28;20122;-64
2021/10/30 07:00:57;;;;;;;39.15;21.77;;;8.40;88.00;;;;;;4950843;28;20042;-64
2021/10/30 07:03:23;;;;;;;37.28;20.95;;;8.50;88.50;;;;;;4957548;28;20082;-63
2021/10/30 07:05:49;;;;;;;31.02;17.27;;;8.50;87.90;;;;;;4960675;28;20069;-64
2021/10/30 07:08:15;;;;;;;30.58;17.25;;;8.60;87.50;;;;;;4954152;28;20027;-64
2021/10/30 07:10:40;;;;;;;27.15;15.38;;;8.70;87.40;;;;;;4972675;28;20038;-64
2021/10/30 07:13:06;;;;;;;30.88;17.92;;;8.80;86.80;;;;;;4955283;28;20078;-65
2021/10/30 07:15:32;;;;;;;27.73;16.33;;;8.90;86.10;;;;;;4954669;28;20046;-61
2021/10/30 07:17:57;;;;;;;27.75;15.95;;;9.00;85.30;;;;;;4955311;28;20126;-65
2021/10/30 07:20:23;;;;;;;29.75;17.83;;;9.10;84.60;;;;;;4955293;28;20070;-64
2021/10/30 07:22:51;;;;;;;26.92;14.82;;;9.20;84.40;;;;;;4961270;28;20829;-64
2021/10/30 07:25:22;;;;;;;27.42;14.93;;;9.40;84.10;;;;;;4958687;28;20066;-65
2021/10/30 07:27:52;;;;;;;28.52;15.65;;;9.50;83.10;;;;;;4952090;28;20820;-67
2021/10/30 07:30:18;;;;;;;25.60;15.02;;;9.60;81.60;;;;;;4956971;28;20545;-66
2021/10/30 07:32:44;;;;;;;22.58;14.18;;;9.80;81.60;;;;;;4954840;28;20073;-66
2021/10/30 07:35:10;;;;;;;24.40;16.48;;;10.30;80.80;;;;;;4962020;28;20465;-71
2021/10/30 07:37:37;;;;;;;22.85;14.57;;;10.50;78.60;;;;;;4953498;28;20122;-67
2021/10/30 07:40:05;;;;;;;28.42;14.85;;;10.70;78.80;;;;;;4955770;28;20035;-66
2021/10/30 07:42:31;;;;;;;26.70;14.90;;;10.80;76.90;;;;;;4960970;28;20046;-66
2021/10/30 07:44:57;;;;;;;24.13;15.57;;;10.90;76.70;;;;;;4945587;28;20396;-65
2021/10/30 07:47:22;;;;;;;24.15;15.10;;;11.00;76.10;;;;;;4951704;28;20487;-65
2021/10/30 07:49:48;;;;;;;23.73;14.93;;;11.10;75.10;;;;;;4951809;28;20506;-65
2021/10/30 07:52:14;;;;;;;24.52;14.77;;;11.20;75.70;;;;;;4946599;28;20455;-65
2021/10/30 07:54:40;;;;;;;23.75;15.20;;;11.30;75.20;;;;;;4968426;28;20034;-66
2021/10/30 07:57:07;;;;;;;21.50;14.68;;;11.20;74.20;;;;;;4958419;28;20177;-66
2021/10/30 07:59:33;;;;;;;22.88;14.63;;;11.20;74.40;;;;;;4953128;28;20407;-65
2021/10/30 08:02:00;;;;;;;26.40;14.73;;;11.30;73.70;;;;;;4954240;28;20053;-66
2021/10/30 08:04:27;;;;;;;23.63;14.88;;;11.30;73.90;;;;;;4960539;28;20030;-65
2021/10/30 08:06:53;;;;;;;23.08;14.23;;;11.30;73.80;;;;;;4954630;28;20053;-65
2021/10/30 08:09:19;;;;;;;26.70;15.57;;;11.40;74.30;;;;;;4958831;28;20609;-66
2021/10/30 08:11:44;;;;;;;24.17;14.52;;;11.60;74.00;;;;;;4952327;28;20035;-64
2021/10/30 08:14:10;;;;;;;27.10;16.25;;;11.80;72.60;;;;;;4957743;28;20546;-63
2021/10/30 08:16:36;;;;;;;28.67;15.30;;;11.90;72.80;;;;;;4954499;28;20491;-64
2021/10/30 08:19:02;;;;;;;27.88;15.25;;;11.90;72.30;;;;;;4951165;28;20631;-64
2021/10/30 08:21:28;;;;;;;20.58;13.90;;;12.00;72.60;;;;;;4955953;28;20035;-64
2021/10/30 08:23:54;;;;;;;21.27;13.57;;;12.10;72.50;;;;;;4953943;28;20111;-63
2021/10/30 08:26:20;;;;;;;24.98;13.70;;;12.30;70.60;;;;;;4967140;28;20039;-64
2021/10/30 08:28:45;;;;;;;21.67;13.70;;;12.40;70.00;;;;;;4953157;28;20123;-63
2021/10/30 08:31:12;;;;;;;26.38;14.23;;;12.40;69.70;;;;;;4956773;28;20078;-64
2021/10/30 08:33:38;;;;;;;21.27;13.98;;;12.50;70.20;;;;;;4955952;28;20061;-65
2021/10/30 08:36:04;;;;;;;23.58;13.63;;;12.50;70.10;;;;;;4970716;28;20051;-62
2021/10/30 08:38:29;;;;;;;23.70;14.45;;;12.70;70.70;;;;;;4959986;28;20039;-65
2021/10/30 08:40:59;;;;;;;19.63;13.27;;;12.80;69.00;;;;;;4957128;28;20046;-64
2021/10/30 08:43:26;;;;;;;20.60;13.23;;;12.90;68.80;;;;;;4953259;28;20057;-65
2021/10/30 08:45:53;;;;;;;22.88;12.75;;;13.00;68.20;;;;;;4971284;28;20042;-64
2021/10/30 08:48:24;;;;;;;23.95;13.63;;;13.30;68.80;;;;;;4961239;28;20023;-63
2021/10/30 08:50:51;;;;;;;18.75;12.57;;;13.50;66.40;;;;;;4960837;28;20039;-64
2021/10/30 08:53:18;;;;;;;20.33;12.75;;;13.80;66.70;;;;;;4961063;28;20129;-64
2021/10/30 08:55:43;;;;;;;22.45;13.50;;;14.00;66.50;;;;;;4957704;28;20604;-65
2021/10/30 08:58:11;;;;;;;21.17;13.50;;;14.30;64.80;;;;;;4959940;28;20049;-65
2021/10/30 09:00:41;;;;;;;21.55;12.55;;;14.30;62.50;;;;;;4968421;28;20075;-66
2021/10/30 09:03:10;;;;;;;22.58;12.98;;;14.30;63.20;;;;;;4971177;28;20050;-62
2021/10/30 09:05:36;;;;;;;18.08;12.80;;;14.90;62.30;;;;;;4973474;28;20034;-63
2021/10/30 09:08:05;;;;;;;18.77;12.27;;;17.00;57.10;;;;;;4967685;28;20038;-61
2021/10/30 09:10:35;;;;;;;18.30;12.30;;;20.60;49.00;;;;;;4960052;28;20033;-62
2021/10/30 09:13:08;;;;;;;20.65;12.48;;;23.70;41.30;;;;;;4961459;28;20035;-64
2021/10/30 09:15:47;;;;;;;18.25;12.02;;;26.10;36.20;;;;;;4965952;28;20050;-64
2021/10/30 09:18:29;;;;;;;20.73;12.68;;;27.90;32.70;;;;;;4956299;28;20137;-64
2021/10/30 09:21:17;;;;;;;17.75;11.95;;;29.60;30.10;;;;;;4954175;28;20046;-65
2021/10/30 09:23:53;;;;;;;17.90;11.63;;;29.10;30.20;;;;;;4960252;28;20039;-65
2021/10/30 09:26:27;;;;;;;16.05;12.15;;;29.80;29.90;;;;;;4950763;28;20051;-65
2021/10/30 09:29:05;;;;;;;17.48;10.05;;;30.90;28.60;;;;;;4974424;28;20039;-65
2021/10/30 09:31:31;;;;;;;14.80;11.25;;;32.80;28.40;;;;;;4963820;28;20049;-65
2021/10/30 09:34:06;;;;;;;14.68;10.98;;;33.40;27.50;;;;;;4972455;28;20039;-65
2021/10/30 09:36:35;;;;;;;14.18;11.35;;;33.30;27.70;;;;;;4961131;28;20038;-65
2021/10/30 09:39:11;;;;;;;17.67;12.98;;;31.40;28.50;;;;;;4956529;28;20050;-65
2021/10/30 09:41:39;;;;;;;25.98;16.45;;;28.20;30.70;;;;;;4951585;28;20031;-65
2021/10/30 09:44:13;;;;;;;24.75;15.60;;;25.50;34.40;;;;;;4976676;28;20043;-65
2021/10/30 09:46:44;;;;;;;15.98;12.23;;;23.20;38.60;;;;;;4967145;28;20046;-65
2021/10/30 09:49:15;;;;;;;19.02;12.38;;;21.30;42.60;;;;;;4956612;28;20137;-64
2021/10/30 09:51:49;;;;;;;17.15;12.18;;;19.90;45.10;;;;;;4977782;28;20038;-64
2021/10/30 09:54:33;;;;;;;22.60;12.73;;;18.90;47.20;;;;;;4957086;28;20061;-64
2021/10/30 09:56:59;;;;;;;22.92;13.48;;;18.10;49.80;;;;;;4968941;28;20042;-65
2021/10/30 09:59:27;;;;;;;20.67;14.13;;;17.70;51.10;;;;;;4960315;28;20543;-64
2021/10/30 10:01:53;;;;;;;25.52;16.50;;;17.50;51.60;;;;;;4964455;28;20030;-64
2021/10/30 10:04:20;;;;;;;27.23;17.08;;;17.20;52.80;;;;;;4964776;28;20039;-64
2021/10/30 10:06:49;;;;;;;22.65;15.20;;;16.90;52.90;;;;;;4957245;28;20031;-65
2021/10/30 10:09:17;;;;;;;20.13;13.43;;;16.60;54.70;;;;;;4950206;28;20130;-64
2021/10/30 10:11:50;;;;;;;19.60;12.38;;;16.40;55.40;;;;;;4960392;28;20045;-64
2021/10/30 10:14:16;;;;;;;18.83;12.25;;;16.20;55.90;;;;;;4960666;28;20646;-64
2021/10/30 10:16:50;;;;;;;18.35;12.82;;;16.10;56.20;;;;;;4967755;28;20590;-64
2021/10/30 10:19:17;;;;;;;20.27;13.55;;;16.00;55.70;;;;;;4951623;28;20046;-64
2021/10/30 10:21:44;;;;;;;16.80;11.75;;;15.80;56.60;;;;;;4950158;28;20255;-64
2021/10/30 10:24:17;;;;;;;16.90;12.13;;;15.80;57.30;;;;;;4954461;28;20122;-63
2021/10/30 10:26:49;;;;;;;20.75;12.13;;;15.80;58.10;;;;;;4963155;28;20061;-64
2021/10/30 10:29:33;;;;;;;17.52;11.95;;;15.80;57.30;;;;;;4946844;28;20066;-64
2021/10/30 10:32:05;;;;;;;19.80;12.90;;;15.80;56.60;;;;;;4952316;28;20065;-64
2021/10/30 10:34:39;;;;;;;24.40;15.98;;;15.70;57.50;;;;;;4949168;28;20467;-64
2021/10/30 10:37:11;;;;;;;19.98;13.30;;;15.70;58.20;;;;;;4941043;28;20039;-64
2021/10/30 10:39:42;;;;;;;17.70;13.75;;;15.70;58.50;;;;;;4947349;28;20093;-64
2021/10/30 10:42:09;;;;;;;19.25;12.35;;;15.70;57.80;;;;;;4951032;28;20038;-64
2021/10/30 10:44:41;;;;;;;18.70;12.98;;;15.70;57.70;;;;;;4954683;28;20023;-64
2021/10/30 10:47:31;;;;;;;18.80;12.50;;;15.70;57.70;;;;;;4948737;28;20031;-63
2021/10/30 10:50:22;;;;;;;18.02;12.20;;;15.70;57.30;;;;;;4955161;28;20117;-65
2021/10/30 10:53:00;;;;;;;19.65;12.32;;;15.70;57.40;;;;;;4957798;28;20045;-65
2021/10/30 10:55:27;;;;;;;17.05;11.55;;;15.80;58.70;;;;;;4948733;28;20118;-65
2021/10/30 10:58:02;;;;;;;22.73;13.27;;;15.70;57.80;;;;;;4954703;28;20049;-65
2021/10/30 11:00:29;;;;;;;18.10;12.55;;;15.70;57.80;;;;;;4969256;28;20697;-65
2021/10/30 11:02:56;;;;;;;17.92;13.30;;;15.60;57.80;;;;;;4952055;28;20090;-64
2021/10/30 11:05:21;;;;;;;17.30;12.88;;;15.60;57.80;;;;;;4961996;28;20747;-64
2021/10/30 11:07:50;;;;;;;21.25;13.25;;;15.60;58.30;;;;;;4969422;28;20114;-65
2021/10/30 11:10:23;;;;;;;23.83;13.43;;;15.60;58.30;;;;;;4953708;28;20047;-65
2021/10/30 11:13:00;;;;;;;20.83;12.30;;;15.60;58.30;;;;;;4948620;28;20054;-64
2021/10/30 11:15:42;;;;;;;20.02;13.90;;;15.70;58.00;;;;;;4956110;28;20034;-64
2021/10/30 11:18:22;;;;;;;19.58;12.80;;;15.70;58.50;;;;;;4972243;28;20145;-65
2021/10/30 11:21:14;;;;;;;16.92;12.25;;;15.80;57.60;;;;;;4956786;28;20768;-64
2021/10/30 11:23:48;;;;;;;20.00;12.98;;;15.80;58.50;;;;;;4957512;28;20512;-64
2021/10/30 11:26:22;;;;;;;17.02;12.20;;;15.70;58.90;;;;;;4954570;28;20045;-64
2021/10/30 11:28:48;;;;;;;18.65;12.80;;;15.70;58.90;;;;;;4957456;28;20514;-65
2021/10/30 11:31:16;;;;;;;21.40;13.05;;;15.70;58.40;;;;;;4974927;28;20551;-64
2021/10/30 11:33:43;;;;;;;18.77;12.20;;;15.80;58.80;;;;;;4954440;28;20035;-64
2021/10/30 11:36:13;;;;;;;19.50;13.38;;;15.80;58.80;;;;;;4956708;28;20035;-64
2021/10/30 11:38:45;;;;;;;20.20;13.13;;;15.80;58.30;;;;;;4953375;28;20038;-64
2021/10/30 11:41:15;;;;;;;24.30;14.02;;;15.80;58.20;;;;;;4949538;28;20185;-64
2021/10/30 11:43:41;;;;;;;21.08;13.95;;;15.80;58.60;;;;;;4960292;28;20046;-64
2021/10/30 11:46:13;;;;;;;20.55;13.68;;;15.80;58.70;;;;;;4956791;28;20130;-65
2021/10/30 11:48:40;;;;;;;19.50;13.20;;;15.80;58.50;;;;;;4949412;28;20027;-64
2021/10/30 11:51:10;;;;;;;20.50;12.82;;;15.80;59.10;;;;;;4945339;28;20678;-64
2021/10/30 11:53:40;;;;;;;17.13;11.75;;;15.90;58.50;;;;;;4957603;28;20023;-64
2021/10/30 11:56:09;;;;;;;18.55;12.73;;;15.90;58.50;;;;;;4953173;28;20027;-64
2021/10/30 11:58:46;;;;;;;21.70;12.93;;;16.00;58.10;;;;;;4952571;28;20039;-65
2021/10/30 12:01:38;;;;;;;19.48;12.18;;;16.00;58.80;;;;;;4945017;28;20039;-65
2021/10/30 12:04:10;;;;;;;16.67;11.82;;;16.10;58.40;;;;;;4956782;28;20630;-65
2021/10/30 12:06:39;;;;;;;18.45;11.82;;;16.10;58.10;;;;;;4957283;28;20030;-65
2021/10/30 12:09:33;;;;;;;17.10;11.20;;;16.10;58.30;;;;;;4949701;28;20544;-65
2021/10/30 12:12:10;;;;;;;17.27;11.18;;;16.00;58.10;;;;;;4973151;28;20039;-65
2021/10/30 12:14:53;;;;;;;17.52;11.15;;;16.00;57.80;;;;;;4952819;28;20093;-65
2021/10/30 12:17:25;;;;;;;18.10;11.30;;;16.00;58.30;;;;;;4959178;28;20508;-65
2021/10/30 12:20:09;;;;;;;16.48;10.88;;;15.90;58.50;;;;;;4953505;28;20817;-65
2021/10/30 12:22:43;;;;;;;17.52;11.23;;;15.90;58.80;;;;;;4947940;28;20030;-65
2021/10/30 12:25:11;;;;;;;16.70;11.13;;;15.90;58.80;;;;;;4947468;28;20117;-64
2021/10/30 12:27:47;;;;;;;17.88;11.18;;;15.90;58.10;;;;;;4961086;28;20045;-65
2021/10/30 12:30:15;;;;;;;20.08;11.98;;;15.80;58.80;;;;;;4949531;28;20763;-65
2021/10/30 12:32:44;;;;;;;15.02;10.98;;;15.80;58.40;;;;;;4953464;28;20042;-65
2021/10/30 12:35:18;;;;;;;16.30;10.65;;;15.80;59.00;;;;;;4952850;28;20988;-65
2021/10/30 12:37:46;;;;;;;16.88;11.18;;;15.80;59.30;;;;;;4958327;28;20039;-65